ロンドン/ヒースロー の空港の天気 - METARとTAF

ロンドン・ヒースロー空港 ( EGLL / LHR ) - イギリス ロンドン
飛行場実況気象(Metar)
観測時間09/25 02:50 BST (09/25 01:50 UTC)
風向・風速北西 1m/s
視程10km以上
天気現象
なし
気温5℃
湿度93%
気圧1039hPa
METAREGLL 250150Z AUTO 32001KT 9999 NCD 05/04 Q1039 NOSIG
過去の天気等 Google飛行場航空写真 Wunderground天気予報

過去48時間のMETAR

飛行場予報(TAF)
発表時間: 9/24 23:52 BST (9/24 22:52 UTC)
予報対象時間: 25日1時 BST ~ 26日7時 BST
風向・風速北 3m/s
視程10km以上
少しの雲 雲底高度 1220m
25日3時 BST から 確率 30% で
視程7000m
26日4時 BST から 確率 30% で
視程7000m
TAF EGLL 242252Z 2500/2606 36005KT 9999 FEW040
PROB30 2502/2508 7000
PROB30 2603/2606 7000